createdAt,value
2023-05-19T00:00:02.249Z,84
2023-05-19T00:00:33.868Z,84
2023-05-19T00:01:04.943Z,84
2023-05-19T00:01:37.908Z,84
2023-05-19T00:02:08.923Z,84
2023-05-19T00:02:34.146Z,84
2023-05-19T00:02:57.029Z,84
2023-05-19T00:03:29.024Z,84
2023-05-19T00:04:01.916Z,84
2023-05-19T00:04:32.979Z,84
2023-05-19T00:05:05.953Z,84
2023-05-19T00:05:34.069Z,84
2023-05-19T00:05:53.200Z,84
2023-05-19T00:06:24.949Z,84
2023-05-19T00:06:42.029Z,84
2023-05-19T00:07:13.877Z,84
2023-05-19T00:07:33.988Z,85
2023-05-19T00:08:00.997Z,85
2023-05-19T00:08:33.909Z,85
2023-05-19T00:09:04.931Z,85
2023-05-19T00:09:34.727Z,85
2023-05-19T00:09:53.267Z,85
2023-05-19T00:10:25.151Z,85
2023-05-19T00:10:42.917Z,85
2023-05-19T00:11:12.888Z,85
2023-05-19T00:11:33.952Z,85
2023-05-19T00:12:01.061Z,85
2023-05-19T00:12:32.895Z,85
2023-05-19T00:13:05.706Z,85
2023-05-19T00:13:34.061Z,85
2023-05-19T00:13:53.249Z,85
2023-05-19T00:14:24.958Z,85
2023-05-19T00:14:42.082Z,85
2023-05-19T00:15:14.058Z,85
2023-05-19T00:15:34.050Z,85
2023-05-19T00:16:01.104Z,85
2023-05-19T00:16:33.131Z,85
2023-05-19T00:17:04.954Z,85
2023-05-19T00:17:34.025Z,85
2023-05-19T00:17:53.051Z,85
2023-05-19T00:18:25.721Z,85
2023-05-19T00:18:57.018Z,85
2023-05-19T00:19:29.675Z,85
2023-05-19T00:20:01.197Z,85
2023-05-19T00:20:33.266Z,85
2023-05-19T00:21:04.933Z,85
2023-05-19T00:21:33.982Z,85
2023-05-19T00:21:53.818Z,85
2023-05-19T00:22:24.892Z,85
2023-05-19T00:22:42.022Z,86
2023-05-19T00:23:13.692Z,86
2023-05-19T00:23:34.020Z,86
2023-05-19T00:24:01.091Z,85
2023-05-19T00:24:32.898Z,86
2023-05-19T00:25:05.107Z,86
2023-05-19T00:25:34.529Z,86
2023-05-19T00:25:53.216Z,86
2023-05-19T00:26:25.695Z,85
2023-05-19T00:26:56.957Z,86
2023-05-19T00:27:29.853Z,86
2023-05-19T00:28:01.112Z,86
2023-05-19T00:28:33.763Z,86
2023-05-19T00:29:04.951Z,86
2023-05-19T00:29:34.036Z,86
2023-05-19T00:29:53.807Z,86
2023-05-19T00:30:25.203Z,86
2023-05-19T00:30:42.061Z,86
2023-05-19T00:31:12.961Z,86
2023-05-19T00:31:34.385Z,86
2023-05-19T00:32:01.798Z,86
2023-05-19T00:32:32.988Z,86
2023-05-19T00:33:05.905Z,86
2023-05-19T00:33:34.063Z,86
2023-05-19T00:33:52.968Z,86
2023-05-19T00:34:25.615Z,86
2023-05-19T00:34:56.933Z,86
2023-05-19T00:35:29.231Z,86
2023-05-19T00:36:00.996Z,86
2023-05-19T00:36:32.985Z,86
2023-05-19T00:37:04.941Z,86
2023-05-19T00:37:34.057Z,86
2023-05-19T00:37:53.793Z,86
2023-05-19T00:38:24.917Z,86
2023-05-19T00:38:42.050Z,86
2023-05-19T00:39:12.900Z,86
2023-05-19T00:39:34.300Z,86
2023-05-19T00:40:01.924Z,86
2023-05-19T00:40:33.235Z,86
2023-05-19T00:41:05.745Z,86
2023-05-19T00:41:34.057Z,86
2023-05-19T00:41:53.181Z,86
2023-05-19T00:42:25.755Z,86
2023-05-19T00:42:56.952Z,86
2023-05-19T00:43:29.676Z,86
2023-05-19T00:44:01.227Z,86
2023-05-19T00:44:33.703Z,86
2023-05-19T00:45:05.205Z,86
2023-05-19T00:45:34.825Z,86
2023-05-19T00:45:54.087Z,86
2023-05-19T00:46:24.950Z,86
2023-05-19T00:46:42.876Z,86
2023-05-19T00:47:12.913Z,86
2023-05-19T00:47:34.113Z,86
2023-05-19T00:48:01.168Z,86
2023-05-19T00:48:32.928Z,86
2023-05-19T00:49:05.680Z,86
2023-05-19T00:49:34.452Z,86
2023-05-19T00:49:53.012Z,86
2023-05-19T00:50:25.173Z,86
2023-05-19T00:50:56.896Z,86
2023-05-19T00:51:29.084Z,86
2023-05-19T00:52:01.656Z,86
2023-05-19T00:52:32.940Z,86
2023-05-19T00:53:04.936Z,86
2023-05-19T00:53:34.018Z,86
2023-05-19T00:53:52.939Z,86
2023-05-19T00:54:25.693Z,86
2023-05-19T00:54:56.957Z,86
2023-05-19T00:55:29.294Z,86
2023-05-19T00:56:01.004Z,87
2023-05-19T00:56:32.954Z,86
2023-05-19T00:57:04.969Z,86
2023-05-19T00:57:34.040Z,86
2023-05-19T00:57:53.870Z,87
2023-05-19T00:58:24.864Z,87
2023-05-19T00:58:42.038Z,87
2023-05-19T00:59:12.861Z,87
2023-05-19T00:59:34.018Z,87
2023-05-19T01:00:02.439Z,87
2023-05-19T01:00:33.304Z,87
2023-05-19T01:01:05.799Z,87
2023-05-19T01:01:34.082Z,87
2023-05-19T01:01:53.005Z,87
2023-05-19T01:02:25.948Z,87
2023-05-19T01:02:56.990Z,87
2023-05-19T01:03:29.760Z,87
2023-05-19T01:04:01.168Z,87
2023-05-19T01:04:33.685Z,87
2023-05-19T01:05:05.110Z,87
2023-05-19T01:05:34.809Z,87
2023-05-19T01:05:53.565Z,87
2023-05-19T01:06:24.909Z,87
2023-05-19T01:06:57.716Z,87
2023-05-19T01:07:29.166Z,87
2023-05-19T01:08:00.988Z,87
2023-05-19T01:08:33.056Z,87
2023-05-19T01:09:04.961Z,87
2023-05-19T01:09:33.988Z,87
2023-05-19T01:09:52.954Z,87
2023-05-19T01:10:25.848Z,87
2023-05-19T01:10:56.908Z,87
2023-05-19T01:11:29.062Z,87
2023-05-19T01:12:00.953Z,87
2023-05-19T01:12:33.907Z,87
2023-05-19T01:13:05.019Z,87
2023-05-19T01:13:33.977Z,87
2023-05-19T01:13:53.720Z,87
2023-05-19T01:14:24.914Z,87
2023-05-19T01:14:42.106Z,87
2023-05-19T01:15:13.185Z,87
2023-05-19T01:15:34.007Z,87
2023-05-19T01:16:01.963Z,87
2023-05-19T01:16:33.122Z,87
2023-05-19T01:17:04.972Z,87
2023-05-19T01:17:34.329Z,87
2023-05-19T01:17:53.208Z,87
2023-05-19T01:18:25.671Z,87
2023-05-19T01:18:57.009Z,87
2023-05-19T01:19:29.777Z,87
2023-05-19T01:20:01.179Z,87
2023-05-19T01:20:34.065Z,87
2023-05-19T01:21:04.937Z,87
2023-05-19T01:21:34.809Z,87
2023-05-19T01:21:53.396Z,87
2023-05-19T01:22:24.930Z,87
2023-05-19T01:22:57.710Z,87
2023-05-19T01:23:29.073Z,87
2023-05-19T01:24:01.134Z,87
2023-05-19T01:24:33.300Z,87
2023-05-19T01:25:05.103Z,87
2023-05-19T01:25:34.425Z,87
2023-05-19T01:25:53.136Z,87
2023-05-19T01:26:25.702Z,87
2023-05-19T01:26:56.928Z,87
2023-05-19T01:27:29.680Z,87
2023-05-19T01:28:00.976Z,87
2023-05-19T01:28:33.755Z,87
2023-05-19T01:29:04.952Z,87
2023-05-19T01:29:33.986Z,87
2023-05-19T01:29:53.818Z,87
2023-05-19T01:30:25.310Z,87
2023-05-19T01:30:56.985Z,87
2023-05-19T01:31:29.048Z,87
2023-05-19T01:32:01.102Z,87
2023-05-19T01:32:33.006Z,88
2023-05-19T01:33:05.353Z,88
2023-05-19T01:33:34.273Z,88
2023-05-19T01:33:53.032Z,88
2023-05-19T01:34:25.730Z,88
2023-05-19T01:34:56.913Z,88
2023-05-19T01:35:29.883Z,88
2023-05-19T01:36:00.978Z,88
2023-05-19T01:36:33.445Z,88
2023-05-19T01:37:04.957Z,88
2023-05-19T01:37:34.137Z,88
2023-05-19T01:37:53.892Z,88
2023-05-19T01:38:24.984Z,88
2023-05-19T01:38:56.937Z,88
2023-05-19T01:39:29.084Z,88
2023-05-19T01:40:01.192Z,88
2023-05-19T01:40:33.380Z,88
2023-05-19T01:41:05.004Z,88
2023-05-19T01:41:34.006Z,88
2023-05-19T01:41:52.981Z,88
2023-05-19T01:42:25.595Z,88
2023-05-19T01:42:57.761Z,88
2023-05-19T01:43:29.711Z,88
2023-05-19T01:44:01.345Z,88
2023-05-19T01:44:33.004Z,88
2023-05-19T01:45:05.299Z,88
2023-05-19T01:45:34.077Z,88
2023-05-19T01:45:54.489Z,88
2023-05-19T01:46:25.047Z,88
2023-05-19T01:46:42.062Z,88
2023-05-19T01:47:12.907Z,88
2023-05-19T01:47:34.057Z,88
2023-05-19T01:48:02.081Z,88
2023-05-19T01:48:32.990Z,88
2023-05-19T01:49:05.792Z,88
2023-05-19T01:49:34.388Z,88
2023-05-19T01:49:53.315Z,88
2023-05-19T01:50:25.085Z,88
2023-05-19T01:50:42.075Z,88
2023-05-19T01:51:13.755Z,88
2023-05-19T01:51:34.027Z,88
2023-05-19T01:52:01.082Z,88
2023-05-19T01:52:33.670Z,88
2023-05-19T01:53:04.960Z,88
2023-05-19T01:53:34.848Z,88
2023-05-19T01:53:53.239Z,88
2023-05-19T01:54:24.954Z,88
2023-05-19T01:54:57.747Z,88
2023-05-19T01:55:29.221Z,88
2023-05-19T01:56:01.137Z,88
2023-05-19T01:56:32.998Z,88
2023-05-19T01:57:05.054Z,88
2023-05-19T01:57:34.311Z,88
2023-05-19T01:57:53.388Z,88
2023-05-19T01:58:25.609Z,88
2023-05-19T01:58:56.975Z,88
2023-05-19T01:59:29.764Z,88
2023-05-19T02:00:01.743Z,88
2023-05-19T02:00:33.451Z,88
2023-05-19T02:01:05.425Z,88
2023-05-19T02:01:34.052Z,88
2023-05-19T02:01:54.216Z,88
2023-05-19T02:02:24.992Z,88
2023-05-19T02:02:42.102Z,88
2023-05-19T02:03:12.896Z,88
2023-05-19T02:03:34.034Z,88
2023-05-19T02:04:01.924Z,88
2023-05-19T02:04:33.121Z,88
2023-05-19T02:05:05.957Z,88
2023-05-19T02:05:34.320Z,88
2023-05-19T02:05:53.200Z,88
2023-05-19T02:06:25.726Z,88
2023-05-19T02:06:56.975Z,88
2023-05-19T02:07:29.038Z,88
2023-05-19T02:08:01.011Z,88
2023-05-19T02:08:33.461Z,88
2023-05-19T02:09:05.256Z,88
2023-05-19T02:09:34.019Z,88
2023-05-19T02:09:54.088Z,88
2023-05-19T02:10:25.110Z,88
2023-05-19T02:10:57.750Z,88
2023-05-19T02:11:29.196Z,88
2023-05-19T02:12:01.796Z,88
2023-05-19T02:12:33.001Z,88
2023-05-19T02:13:05.787Z,88
2023-05-19T02:13:34.578Z,89
2023-05-19T02:13:53.010Z,89
2023-05-19T02:14:25.694Z,89
2023-05-19T02:14:56.996Z,89
2023-05-19T02:15:30.148Z,89
2023-05-19T02:16:01.174Z,89
2023-05-19T02:16:33.736Z,89
2023-05-19T02:17:04.998Z,89
2023-05-19T02:17:34.976Z,89
2023-05-19T02:17:53.397Z,89
2023-05-19T02:18:24.892Z,89
2023-05-19T02:18:42.159Z,89
2023-05-19T02:19:12.937Z,89
2023-05-19T02:19:34.067Z,89
2023-05-19T02:20:02.146Z,89
2023-05-19T02:20:33.374Z,89
2023-05-19T02:21:05.806Z,89
2023-05-19T02:21:34.012Z,89
2023-05-19T02:21:52.997Z,89
2023-05-19T02:22:25.583Z,89
2023-05-19T02:22:56.987Z,89
2023-05-19T02:23:29.772Z,89
2023-05-19T02:24:01.119Z,89
2023-05-19T02:24:33.255Z,89
2023-05-19T02:25:05.240Z,89
2023-05-19T02:25:34.220Z,89
2023-05-19T02:25:54.024Z,89
2023-05-19T02:26:24.907Z,89
2023-05-19T02:26:56.942Z,89
2023-05-19T02:27:29.154Z,89
2023-05-19T02:28:01.209Z,89
2023-05-19T02:28:33.006Z,89
2023-05-19T02:29:05.003Z,89
2023-05-19T02:29:34.346Z,89
2023-05-19T02:29:52.958Z,89
2023-05-19T02:30:26.063Z,89
2023-05-19T02:30:56.923Z,89
2023-05-19T02:31:29.790Z,89
2023-05-19T02:32:01.791Z,89
2023-05-19T02:32:33.065Z,89
2023-05-19T02:33:05.022Z,90
2023-05-19T02:33:34.087Z,90
2023-05-19T02:33:53.942Z,90
2023-05-19T02:34:24.930Z,90
2023-05-19T02:34:42.075Z,89
2023-05-19T02:35:13.098Z,89
2023-05-19T02:35:34.007Z,90
2023-05-19T02:36:01.939Z,90
2023-05-19T02:36:32.952Z,90
2023-05-19T02:37:05.786Z,90
2023-05-19T02:37:33.995Z,90
2023-05-19T02:37:53.065Z,90
2023-05-19T02:38:25.684Z,90
2023-05-19T02:38:57.018Z,90
2023-05-19T02:39:29.970Z,90
2023-05-19T02:40:01.312Z,90
2023-05-19T02:40:34.985Z,90
2023-05-19T02:41:04.949Z,90
2023-05-19T02:41:34.025Z,90
2023-05-19T02:41:53.456Z,90
2023-05-19T02:42:24.983Z,90
2023-05-19T02:42:57.776Z,90
2023-05-19T02:43:29.653Z,90
2023-05-19T02:44:01.349Z,90
2023-05-19T02:44:33.070Z,90
2023-05-19T02:45:05.244Z,90
2023-05-19T02:45:34.118Z,90
2023-05-19T02:45:53.523Z,90
2023-05-19T02:46:25.670Z,90
2023-05-19T02:46:56.932Z,90
2023-05-19T02:47:29.784Z,90
2023-05-19T02:48:01.393Z,90
2023-05-19T02:48:33.628Z,90
2023-05-19T02:49:04.923Z,90
2023-05-19T02:49:34.862Z,90
2023-05-19T02:49:53.756Z,90
2023-05-19T02:50:25.172Z,90
2023-05-19T02:50:57.879Z,90
2023-05-19T02:51:29.032Z,90
2023-05-19T02:52:01.824Z,90
2023-05-19T02:52:32.953Z,90
2023-05-19T02:53:04.961Z,90
2023-05-19T02:53:34.021Z,90
2023-05-19T02:53:53.069Z,90
2023-05-19T02:54:25.721Z,90
2023-05-19T02:54:57.328Z,90
2023-05-19T02:55:30.123Z,90
2023-05-19T02:56:01.082Z,90
2023-05-19T02:56:33.733Z,90
2023-05-19T02:57:04.964Z,90
2023-05-19T02:57:35.179Z,90
2023-05-19T02:57:53.336Z,90
2023-05-19T02:58:25.002Z,90
2023-05-19T02:58:57.820Z,90
2023-05-19T02:59:29.696Z,90
2023-05-19T03:00:01.507Z,90
2023-05-19T03:00:33.189Z,90
2023-05-19T03:01:04.944Z,90
2023-05-19T03:01:35.793Z,90
2023-05-19T03:01:53.130Z,90
2023-05-19T03:02:25.065Z,90
2023-05-19T03:02:42.277Z,90
2023-05-19T03:03:13.898Z,90
2023-05-19T03:03:34.290Z,90
2023-05-19T03:04:01.249Z,90
2023-05-19T03:04:33.008Z,90
2023-05-19T03:05:05.234Z,90
2023-05-19T03:05:33.994Z,90
2023-05-19T03:05:53.218Z,90
2023-05-19T03:06:25.717Z,90
2023-05-19T03:06:56.947Z,90
2023-05-19T03:07:29.747Z,90
2023-05-19T03:08:01.174Z,90
2023-05-19T03:08:33.720Z,90
2023-05-19T03:09:05.074Z,90
2023-05-19T03:09:34.876Z,90
2023-05-19T03:09:53.662Z,90
2023-05-19T03:10:25.082Z,90
2023-05-19T03:10:42.982Z,90
2023-05-19T03:11:12.975Z,90
2023-05-19T03:11:34.139Z,90
2023-05-19T03:12:01.780Z,90
2023-05-19T03:12:33.379Z,90
2023-05-19T03:13:04.950Z,90
2023-05-19T03:13:34.001Z,90
2023-05-19T03:13:53.038Z,90
2023-05-19T03:14:25.771Z,90
2023-05-19T03:14:56.935Z,90
2023-05-19T03:15:30.116Z,90
2023-05-19T03:16:01.094Z,90
2023-05-19T03:16:33.860Z,90
2023-05-19T03:17:04.946Z,90
2023-05-19T03:17:34.283Z,90
2023-05-19T03:17:54.022Z,90
2023-05-19T03:18:25.011Z,90
2023-05-19T03:18:57.094Z,90
2023-05-19T03:19:29.217Z,90
2023-05-19T03:20:01.301Z,90
2023-05-19T03:20:33.132Z,90
2023-05-19T03:21:04.960Z,90
2023-05-19T03:21:33.997Z,90
2023-05-19T03:21:53.078Z,90
2023-05-19T03:22:25.759Z,90
2023-05-19T03:22:56.985Z,90
2023-05-19T03:23:29.716Z,90
2023-05-19T03:24:01.172Z,90
2023-05-19T03:24:33.835Z,90
2023-05-19T03:25:05.146Z,90
2023-05-19T03:25:34.040Z,90
2023-05-19T03:25:54.095Z,90
2023-05-19T03:26:24.937Z,90
2023-05-19T03:26:57.742Z,90
2023-05-19T03:27:28.980Z,90
2023-05-19T03:28:17.907Z,90
2023-05-19T03:28:49.075Z,90
2023-05-19T03:29:21.045Z,90
2023-05-19T03:29:39.040Z,90
2023-05-19T03:30:09.371Z,90
2023-05-19T03:30:34.298Z,90
2023-05-19T03:30:57.903Z,90
2023-05-19T03:31:29.001Z,90
2023-05-19T03:32:02.116Z,90
2023-05-19T03:32:33.134Z,90
2023-05-19T03:33:05.898Z,90
2023-05-19T03:33:34.290Z,90
2023-05-19T03:33:53.298Z,90
2023-05-19T03:34:24.934Z,90
2023-05-19T03:34:56.978Z,90
2023-05-19T03:35:29.702Z,90
2023-05-19T03:36:01.230Z,90
2023-05-19T03:36:33.016Z,90
2023-05-19T03:37:04.995Z,90
2023-05-19T03:37:34.045Z,90
2023-05-19T03:37:53.021Z,90
2023-05-19T03:38:25.725Z,90
2023-05-19T03:38:57.097Z,90
2023-05-19T03:39:29.055Z,90
2023-05-19T03:40:01.425Z,90
2023-05-19T03:40:33.364Z,90
2023-05-19T03:41:04.994Z,90
2023-05-19T03:41:34.135Z,90
2023-05-19T03:41:53.958Z,90
2023-05-19T03:42:25.161Z,90
2023-05-19T03:42:57.942Z,90
2023-05-19T03:43:29.114Z,90
2023-05-19T03:44:02.124Z,90
2023-05-19T03:44:33.169Z,90
2023-05-19T03:45:06.339Z,90
2023-05-19T03:45:34.249Z,90
2023-05-19T03:45:53.446Z,90
2023-05-19T03:46:25.968Z,90
2023-05-19T03:46:57.111Z,90
2023-05-19T03:47:29.996Z,90
2023-05-19T03:48:01.542Z,91
2023-05-19T03:48:33.897Z,91
2023-05-19T03:49:05.265Z,91
2023-05-19T03:49:34.206Z,90
2023-05-19T03:49:53.940Z,90
2023-05-19T03:50:25.232Z,91
2023-05-19T03:50:57.111Z,91
2023-05-19T03:51:29.309Z,91
2023-05-19T03:52:01.227Z,90
2023-05-19T03:52:33.197Z,91
2023-05-19T03:53:05.049Z,91
2023-05-19T03:53:34.193Z,91
2023-05-19T03:53:53.306Z,91
2023-05-19T03:54:25.856Z,91
2023-05-19T03:54:57.785Z,91
2023-05-19T03:55:29.321Z,91
2023-05-19T03:56:01.354Z,91
2023-05-19T03:56:33.169Z,91
2023-05-19T03:57:05.165Z,91
2023-05-19T03:57:34.187Z,91
2023-05-19T03:57:54.296Z,91
2023-05-19T03:58:25.145Z,91
2023-05-19T03:58:58.039Z,91
2023-05-19T03:59:29.414Z,91
2023-05-19T04:00:03.053Z,91
2023-05-19T04:00:33.574Z,91
2023-05-19T04:01:05.097Z,91
2023-05-19T04:01:34.226Z,91
2023-05-19T04:01:53.213Z,91
2023-05-19T04:02:25.958Z,91
2023-05-19T04:02:57.196Z,91
2023-05-19T04:03:30.071Z,91
2023-05-19T04:04:01.407Z,91
2023-05-19T04:04:34.048Z,91
2023-05-19T04:05:05.353Z,91
2023-05-19T04:05:34.593Z,91
2023-05-19T04:05:54.644Z,91
2023-05-19T04:06:25.168Z,91
2023-05-19T04:06:58.036Z,91
2023-05-19T04:07:29.175Z,91
2023-05-19T04:08:02.058Z,91
2023-05-19T04:08:33.135Z,91
2023-05-19T04:09:06.185Z,91
2023-05-19T04:09:34.263Z,91
2023-05-19T04:09:53.288Z,91
2023-05-19T04:10:25.235Z,91
2023-05-19T04:10:57.105Z,91
2023-05-19T04:11:29.267Z,91
2023-05-19T04:12:01.224Z,91
2023-05-19T04:12:33.503Z,91
2023-05-19T04:13:05.100Z,91
2023-05-19T04:13:34.250Z,91
2023-05-19T04:13:53.137Z,91
2023-05-19T04:14:25.863Z,91
2023-05-19T04:14:57.155Z,91
2023-05-19T04:15:30.341Z,91
2023-05-19T04:16:01.486Z,91
2023-05-19T04:16:33.921Z,91
2023-05-19T04:17:05.215Z,91
2023-05-19T04:17:34.507Z,91
2023-05-19T04:17:54.266Z,91
2023-05-19T04:18:26.950Z,91
2023-05-19T04:18:57.855Z,91
2023-05-19T04:19:29.408Z,91
2023-05-19T04:20:01.467Z,91
2023-05-19T04:20:33.497Z,91
2023-05-19T04:21:05.136Z,91
2023-05-19T04:21:34.203Z,91
2023-05-19T04:21:53.220Z,91
2023-05-19T04:22:25.796Z,91
2023-05-19T04:22:57.063Z,91
2023-05-19T04:23:29.905Z,91
2023-05-19T04:24:01.342Z,91
2023-05-19T04:24:33.981Z,91
2023-05-19T04:25:05.324Z,91
2023-05-19T04:25:34.216Z,91
2023-05-19T04:25:54.275Z,91
2023-05-19T04:26:25.092Z,91
2023-05-19T04:26:57.142Z,91
2023-05-19T04:27:29.805Z,91
2023-05-19T04:28:01.494Z,91
2023-05-19T04:28:33.207Z,91
2023-05-19T04:29:05.252Z,91
2023-05-19T04:29:34.211Z,91
2023-05-19T04:29:53.222Z,91
2023-05-19T04:30:26.508Z,91
2023-05-19T04:30:57.142Z,91
2023-05-19T04:31:29.917Z,91
2023-05-19T04:32:01.506Z,91
2023-05-19T04:32:33.218Z,91
2023-05-19T04:33:05.425Z,91
2023-05-19T04:33:34.188Z,91
2023-05-19T04:33:54.407Z,91
2023-05-19T04:34:25.194Z,91
2023-05-19T04:34:57.168Z,91
2023-05-19T04:35:29.402Z,91
2023-05-19T04:36:01.339Z,91
2023-05-19T04:36:33.175Z,91
2023-05-19T04:37:05.109Z,91
2023-05-19T04:37:34.210Z,91
2023-05-19T04:37:53.261Z,91
2023-05-19T04:38:26.066Z,91
2023-05-19T04:38:57.099Z,91
2023-05-19T04:39:29.962Z,91
2023-05-19T04:40:01.505Z,91
2023-05-19T04:40:34.283Z,90
2023-05-19T04:41:05.095Z,90
2023-05-19T04:41:35.087Z,90
2023-05-19T04:41:53.186Z,90
2023-05-19T04:42:25.360Z,90
2023-05-19T04:42:57.871Z,90
2023-05-19T04:43:29.102Z,90
2023-05-19T04:44:02.256Z,90
2023-05-19T04:44:33.181Z,90
2023-05-19T04:45:06.624Z,90
2023-05-19T04:45:34.214Z,90
2023-05-19T04:45:53.393Z,90
2023-05-19T04:46:25.161Z,90
2023-05-19T04:46:57.809Z,90
2023-05-19T04:47:29.193Z,90
2023-05-19T04:48:01.897Z,90
2023-05-19T04:48:33.264Z,90
2023-05-19T04:49:05.110Z,90
2023-05-19T04:49:34.229Z,90
2023-05-19T04:49:53.593Z,90
2023-05-19T04:50:26.171Z,90
2023-05-19T04:50:57.158Z,90
2023-05-19T04:51:30.713Z,90
2023-05-19T04:52:01.256Z,90
2023-05-19T04:52:33.995Z,90
2023-05-19T04:53:05.179Z,90
2023-05-19T04:53:35.041Z,90
2023-05-19T04:53:53.296Z,90
2023-05-19T04:54:25.120Z,90
2023-05-19T04:54:57.943Z,90
2023-05-19T04:55:29.386Z,90
2023-05-19T04:56:02.000Z,90
2023-05-19T04:56:33.182Z,90
2023-05-19T04:57:05.102Z,90
2023-05-19T04:57:34.223Z,90
2023-05-19T04:57:53.232Z,90
2023-05-19T04:58:25.864Z,90
2023-05-19T04:58:57.142Z,90
2023-05-19T04:59:29.160Z,90
2023-05-19T05:00:02.164Z,90
2023-05-19T05:00:33.444Z,90
2023-05-19T05:01:05.443Z,90
2023-05-19T05:01:34.150Z,90
2023-05-19T05:01:54.332Z,90
2023-05-19T05:02:25.240Z,90
2023-05-19T05:02:58.121Z,90
2023-05-19T05:03:29.379Z,90
2023-05-19T05:04:02.250Z,90
2023-05-19T05:04:33.224Z,90
2023-05-19T05:05:06.253Z,90
2023-05-19T05:05:34.271Z,90
2023-05-19T05:05:53.877Z,90
2023-05-19T05:06:25.127Z,89
2023-05-19T05:06:57.106Z,89
2023-05-19T05:07:30.852Z,89
2023-05-19T05:08:01.792Z,89
2023-05-19T05:08:33.226Z,89
2023-05-19T05:09:05.133Z,89
2023-05-19T05:09:34.258Z,89
2023-05-19T05:09:53.368Z,89
2023-05-19T05:10:26.184Z,89
2023-05-19T05:10:57.172Z,89
2023-05-19T05:11:30.001Z,89
2023-05-19T05:12:01.305Z,89
2023-05-19T05:12:33.157Z,89
2023-05-19T05:13:05.167Z,89
2023-05-19T05:13:34.266Z,88
2023-05-19T05:13:54.107Z,88
2023-05-19T05:14:25.120Z,88
2023-05-19T05:14:58.060Z,88
2023-05-19T05:15:29.477Z,88
2023-05-19T05:16:02.251Z,88
2023-05-19T05:16:33.830Z,88
2023-05-19T05:17:06.055Z,88
2023-05-19T05:17:34.287Z,88
2023-05-19T05:17:53.559Z,87
2023-05-19T05:18:25.181Z,87
2023-05-19T05:18:57.686Z,87
2023-05-19T05:19:29.214Z,86
2023-05-19T05:20:02.294Z,86
2023-05-19T05:20:33.945Z,86
2023-05-19T05:21:05.147Z,86
2023-05-19T05:21:34.436Z,86
2023-05-19T05:21:53.294Z,86
2023-05-19T05:22:25.909Z,86
2023-05-19T05:22:57.628Z,86
2023-05-19T05:23:30.010Z,85
2023-05-19T05:24:01.340Z,85
2023-05-19T05:24:34.078Z,85
2023-05-19T05:25:05.502Z,85
2023-05-19T05:25:35.372Z,85
2023-05-19T05:25:54.126Z,85
2023-05-19T05:26:25.221Z,85
2023-05-19T05:26:58.338Z,84
2023-05-19T05:27:29.187Z,84
2023-05-19T05:28:02.084Z,84
2023-05-19T05:28:33.764Z,84
2023-05-19T05:29:06.114Z,84
2023-05-19T05:29:34.202Z,84
2023-05-19T05:29:53.237Z,84
2023-05-19T05:30:26.164Z,84
2023-05-19T05:30:57.204Z,84
2023-05-19T05:31:30.039Z,84
2023-05-19T05:32:01.579Z,84
2023-05-19T05:32:34.129Z,84
2023-05-19T05:33:05.333Z,84
2023-05-19T05:33:35.382Z,84
2023-05-19T05:33:53.945Z,84
2023-05-19T05:34:25.112Z,84
2023-05-19T05:34:58.831Z,84
2023-05-19T05:35:29.408Z,84
2023-05-19T05:36:02.149Z,84
2023-05-19T05:36:33.190Z,84
2023-05-19T05:37:05.189Z,84
2023-05-19T05:37:36.155Z,84
2023-05-19T05:38:09.285Z,83
2023-05-19T05:38:34.418Z,83
2023-05-19T05:38:57.109Z,83
2023-05-19T05:39:30.217Z,83
2023-05-19T05:40:03.011Z,83
2023-05-19T05:40:34.008Z,83
2023-05-19T05:41:05.164Z,83
2023-05-19T05:41:34.612Z,83
2023-05-19T05:41:54.205Z,83
2023-05-19T05:42:27.011Z,83
2023-05-19T05:42:58.188Z,83
2023-05-19T05:43:29.227Z,83
2023-05-19T05:44:02.354Z,82
2023-05-19T05:44:33.225Z,82
2023-05-19T05:45:06.276Z,82
2023-05-19T05:45:34.492Z,82
2023-05-19T05:45:54.188Z,82
2023-05-19T05:46:25.383Z,82
2023-05-19T05:46:57.160Z,82
2023-05-19T05:47:29.318Z,82
2023-05-19T05:48:01.919Z,82
2023-05-19T05:48:33.280Z,82
2023-05-19T05:49:05.313Z,82
2023-05-19T05:49:34.263Z,82
2023-05-19T05:49:53.731Z,81
2023-05-19T05:50:26.108Z,81
2023-05-19T05:50:57.175Z,81
2023-05-19T05:51:29.972Z,81
2023-05-19T05:52:06.316Z,81
2023-05-19T05:52:33.977Z,81
2023-05-19T05:53:05.132Z,81
2023-05-19T05:53:35.069Z,81
2023-05-19T05:53:53.484Z,81
2023-05-19T05:54:25.159Z,81
2023-05-19T05:54:58.044Z,81
2023-05-19T05:55:29.404Z,81
2023-05-19T05:56:02.206Z,81
2023-05-19T05:56:33.203Z,81
2023-05-19T05:57:05.161Z,81
2023-05-19T05:57:34.185Z,81
2023-05-19T05:57:53.640Z,80
2023-05-19T05:58:26.227Z,80
2023-05-19T05:58:57.266Z,80
2023-05-19T05:59:30.198Z,80
2023-05-19T06:00:02.399Z,80
2023-05-19T06:00:34.525Z,80
2023-05-19T06:01:05.306Z,80
2023-05-19T06:01:37.450Z,80
2023-05-19T06:02:09.449Z,80
2023-05-19T06:02:34.713Z,79
2023-05-19T06:02:57.433Z,79
2023-05-19T06:03:29.302Z,79
2023-05-19T06:04:01.909Z,79
2023-05-19T06:04:33.401Z,79
2023-05-19T06:05:05.603Z,79
2023-05-19T06:05:34.667Z,79
2023-05-19T06:05:53.615Z,78
2023-05-19T06:06:25.907Z,78
2023-05-19T06:06:57.254Z,78
2023-05-19T06:07:30.158Z,77
2023-05-19T06:08:01.282Z,77
2023-05-19T06:08:33.968Z,78
2023-05-19T06:09:05.255Z,78
2023-05-19T06:09:34.259Z,78
2023-05-19T06:09:54.468Z,78
2023-05-19T06:10:25.352Z,77
2023-05-19T06:10:58.002Z,77
2023-05-19T06:11:29.346Z,77
2023-05-19T06:12:02.179Z,77
2023-05-19T06:12:34.151Z,77
2023-05-19T06:13:06.145Z,77
2023-05-19T06:13:34.457Z,77
2023-05-19T06:13:53.694Z,77
2023-05-19T06:14:25.559Z,78
2023-05-19T06:14:42.411Z,78
2023-05-19T06:15:14.345Z,78
2023-05-19T06:15:34.495Z,78
2023-05-19T06:16:02.258Z,79
2023-05-19T06:16:33.710Z,79
2023-05-19T06:17:05.511Z,79
2023-05-19T06:17:34.418Z,79
2023-05-19T06:17:55.098Z,79
2023-05-19T06:18:26.145Z,79
2023-05-19T06:18:57.453Z,79
2023-05-19T06:19:30.916Z,79
2023-05-19T06:20:02.056Z,79
2023-05-19T06:20:34.569Z,79
2023-05-19T06:21:05.414Z,78
2023-05-19T06:21:34.414Z,78
2023-05-19T06:21:53.906Z,78
2023-05-19T06:22:25.484Z,78
2023-05-19T06:22:42.414Z,78
2023-05-19T06:23:13.328Z,78
2023-05-19T06:23:34.955Z,78
2023-05-19T06:24:02.500Z,77
2023-05-19T06:24:33.427Z,77
2023-05-19T06:25:07.266Z,77
2023-05-19T06:25:34.742Z,78
2023-05-19T06:25:53.742Z,77
2023-05-19T06:26:25.262Z,77
2023-05-19T06:26:57.231Z,77
2023-05-19T06:27:29.323Z,78
2023-05-19T06:28:01.435Z,78
2023-05-19T06:28:33.492Z,77
2023-05-19T06:29:05.248Z,77
2023-05-19T06:29:34.428Z,77
2023-05-19T06:29:53.486Z,78
2023-05-19T06:30:26.348Z,78
2023-05-19T06:30:57.366Z,78
2023-05-19T06:31:30.378Z,78
2023-05-19T06:32:01.829Z,78
2023-05-19T06:32:33.477Z,78
2023-05-19T06:33:05.711Z,78
2023-05-19T06:33:34.343Z,78
2023-05-19T06:33:54.375Z,77
2023-05-19T06:34:25.380Z,77
2023-05-19T06:34:42.369Z,77
2023-05-19T06:35:29.460Z,77
2023-05-19T06:36:02.805Z,77
2023-05-19T06:36:33.412Z,77
2023-05-19T06:37:06.230Z,77
2023-05-19T06:37:34.494Z,77
2023-05-19T06:37:53.616Z,78
2023-05-19T06:38:25.418Z,78
2023-05-19T06:38:57.302Z,77
2023-05-19T06:39:29.616Z,77
2023-05-19T06:40:02.724Z,77
2023-05-19T06:40:33.642Z,77
2023-05-19T06:41:05.262Z,76
2023-05-19T06:41:34.508Z,76
2023-05-19T06:41:53.450Z,76
2023-05-19T06:42:25.987Z,76
2023-05-19T06:42:57.250Z,77
2023-05-19T06:43:29.384Z,76
2023-05-19T06:44:01.803Z,76
2023-05-19T06:44:33.454Z,76
2023-05-19T06:45:05.718Z,76
2023-05-19T06:45:34.450Z,76
2023-05-19T06:45:54.450Z,76
2023-05-19T06:46:25.332Z,75
2023-05-19T06:46:42.474Z,75
2023-05-19T06:47:13.410Z,75
2023-05-19T06:47:34.460Z,75
2023-05-19T06:48:02.898Z,76
2023-05-19T06:48:33.701Z,76
2023-05-19T06:49:06.173Z,76
2023-05-19T06:49:34.326Z,76
2023-05-19T06:49:53.447Z,76
2023-05-19T06:50:25.501Z,76
2023-05-19T06:50:57.642Z,75
2023-05-19T06:51:29.487Z,75
2023-05-19T06:52:02.203Z,74
2023-05-19T06:52:33.355Z,74
2023-05-19T06:53:05.213Z,73
2023-05-19T06:53:34.449Z,74
2023-05-19T06:54:09.540Z,74
2023-05-19T06:54:34.435Z,74
2023-05-19T06:54:57.247Z,74
2023-05-19T06:55:30.362Z,74
2023-05-19T06:56:01.455Z,75
2023-05-19T06:56:34.164Z,75
2023-05-19T06:57:05.190Z,74
2023-05-19T06:57:35.202Z,74
2023-05-19T06:57:53.400Z,74